Airfield :
LOGIN :

Register | Disclaimer

   EN    FR    IT 

 










Legend :    VFR   Marginal VFR   IFR   Intensive IFR   Very Intensive IFR
Visi :
Ceiling :
>= 8 km
>= 3000ft
5 to 8 km
1000 to 3000 ft
1500m to 5 km
500 to 1000 ft
800 to 1500m
200 to 500 ft
< 800m
< 200 ft
Symbols :   Thunderstorms  Fog  Heavy snow  Heavy precipitations  Wind > 20 kt
SIGMETs :     Misc.  Thunderstorms  Icing  Turbulence  Mountain Waves  Volcanic Ashes






- Airport Elevation : 112 ft
- IATA code : KIR


EIKY - Kerry Farranfore

CURRENT METAR :
  • 210900Z VRB02KT 9999 FEW010 BKN014 12/12 Q1019

EXPIRED METARs :
  • 210830Z VRB02KT 8000 BKN009 OVC013 11/11 Q1019
  • 210800Z 24003KT 9999 FEW004 OVC009 10/10 Q1019
  • 210730Z VRB02KT 6000 SCT011 09/09 Q1019
  • 210700Z VRB01KT 6000 SCT009 10/10 Q1019
  • 210630Z 11003KT 7000 FEW006 BKN009 09/09 Q1019

TAF TAF EIKY
Valid from the 21 at 09:00 until the 21 at 18:00 UTC


210800Z 2109/2118 VRB03KT 9999 SCT010
TEMPO 2109/2111 BKN010
BECMG 2111/2113 26008KT
BECMG 2116/2118 30008KT



MET'MAP, your aeronautical weather chart ! - Copyright ORBIFLY December 2007 - Disclaimer

ORBIFLY MET'MAP TEAM :

Programming & Development : Alexandra Zaïnal
Concept & original design : Baudouin d'Aumeries
Assistance for programming : Marc-Olivier Méhu
Technical & hardware support : Manuel Goepfert

Contact : metmap@orbifly.com




SOURCES & CREDITS :

   NOAA